Terminal Aerodrome Forecast
Issued by NWS Sioux Falls, SD

Home | Current Version | Previous Version | Graphics & Text | Print | Product List | Glossary Off
Versions: 1 2 3 4 5 6 7 8 9 10 11 12 13 14 15 16 17 18 19 20 21 22 23 24 25 26 27 28 29 30 31 32 33 34 35 36 37 38 39 40 41 42

000
FTUS43 KFSD 011133
TAFSUX
TAF
KSUX 011133Z 0112/0212 VRB03KT 2SM BR SCT005
      TEMPO 0112/0114 1SM BR
     FM011400 16006KT 5SM BR BKN014
     FM011900 VRB04KT P6SM SCT020
     FM020300 01006KT P6SM SCT030 BKN120=

USA.gov is the U.S. government's official web portal to all federal, state and local government web resources and services.